sensor_id;sensor_type;location;lat;lon;timestamp;P1;durP1;ratioP1;P2;durP2;ratioP2
583;SDS011;27024;54.068;12.116;2023-04-25T00:01:30;5.65;;;4.03;;
583;SDS011;27024;54.068;12.116;2023-04-25T00:03:58;6.20;;;3.85;;
583;SDS011;27024;54.068;12.116;2023-04-25T00:06:25;5.97;;;3.58;;
583;SDS011;27024;54.068;12.116;2023-04-25T00:08:52;6.45;;;3.97;;
583;SDS011;27024;54.068;12.116;2023-04-25T00:11:20;6.28;;;3.30;;
583;SDS011;27024;54.068;12.116;2023-04-25T00:13:47;5.20;;;3.42;;
583;SDS011;27024;54.068;12.116;2023-04-25T00:16:16;5.78;;;3.60;;
583;SDS011;27024;54.068;12.116;2023-04-25T00:18:43;6.05;;;3.33;;
583;SDS011;27024;54.068;12.116;2023-04-25T00:21:12;6.10;;;3.88;;
583;SDS011;27024;54.068;12.116;2023-04-25T00:23:39;7.20;;;3.95;;
583;SDS011;27024;54.068;12.116;2023-04-25T00:26:06;6.13;;;3.65;;
583;SDS011;27024;54.068;12.116;2023-04-25T00:28:33;6.15;;;3.90;;
583;SDS011;27024;54.068;12.116;2023-04-25T00:30:59;6.07;;;3.47;;
583;SDS011;27024;54.068;12.116;2023-04-25T00:33:26;5.13;;;3.25;;
583;SDS011;27024;54.068;12.116;2023-04-25T00:35:53;6.03;;;3.50;;
583;SDS011;27024;54.068;12.116;2023-04-25T00:38:20;6.82;;;3.33;;
583;SDS011;27024;54.068;12.116;2023-04-25T00:40:47;8.40;;;3.72;;
583;SDS011;27024;54.068;12.116;2023-04-25T00:43:14;9.02;;;4.07;;
583;SDS011;27024;54.068;12.116;2023-04-25T00:45:41;9.05;;;4.82;;
583;SDS011;27024;54.068;12.116;2023-04-25T00:48:09;7.85;;;4.13;;
583;SDS011;27024;54.068;12.116;2023-04-25T00:50:36;7.38;;;4.18;;
583;SDS011;27024;54.068;12.116;2023-04-25T00:53:04;9.30;;;4.80;;
583;SDS011;27024;54.068;12.116;2023-04-25T00:55:31;7.45;;;4.40;;
583;SDS011;27024;54.068;12.116;2023-04-25T00:57:58;6.22;;;3.80;;
583;SDS011;27024;54.068;12.116;2023-04-25T01:00:25;6.72;;;4.35;;
583;SDS011;27024;54.068;12.116;2023-04-25T01:02:52;9.38;;;3.85;;
583;SDS011;27024;54.068;12.116;2023-04-25T01:05:19;7.53;;;3.33;;
583;SDS011;27024;54.068;12.116;2023-04-25T01:07:46;6.25;;;3.50;;
583;SDS011;27024;54.068;12.116;2023-04-25T01:10:13;8.50;;;4.03;;
583;SDS011;27024;54.068;12.116;2023-04-25T01:12:41;6.93;;;3.95;;
583;SDS011;27024;54.068;12.116;2023-04-25T01:15:08;7.38;;;4.28;;
583;SDS011;27024;54.068;12.116;2023-04-25T01:17:35;6.63;;;3.28;;
583;SDS011;27024;54.068;12.116;2023-04-25T01:20:03;7.13;;;3.70;;
583;SDS011;27024;54.068;12.116;2023-04-25T01:22:31;8.45;;;3.28;;
583;SDS011;27024;54.068;12.116;2023-04-25T01:24:58;6.43;;;3.40;;
583;SDS011;27024;54.068;12.116;2023-04-25T01:27:26;7.82;;;3.25;;
583;SDS011;27024;54.068;12.116;2023-04-25T01:29:54;5.15;;;2.90;;
583;SDS011;27024;54.068;12.116;2023-04-25T01:32:22;7.78;;;3.30;;
583;SDS011;27024;54.068;12.116;2023-04-25T01:34:50;10.18;;;3.15;;
583;SDS011;27024;54.068;12.116;2023-04-25T01:37:17;9.00;;;2.95;;
583;SDS011;27024;54.068;12.116;2023-04-25T01:39:44;12.23;;;3.08;;
583;SDS011;27024;54.068;12.116;2023-04-25T01:42:12;10.05;;;3.38;;
583;SDS011;27024;54.068;12.116;2023-04-25T01:44:39;8.20;;;3.25;;
583;SDS011;27024;54.068;12.116;2023-04-25T01:47:06;11.35;;;3.42;;
583;SDS011;27024;54.068;12.116;2023-04-25T01:49:33;10.80;;;3.13;;
583;SDS011;27024;54.068;12.116;2023-04-25T01:52:00;8.55;;;3.88;;
583;SDS011;27024;54.068;12.116;2023-04-25T01:54:26;12.45;;;3.65;;
583;SDS011;27024;54.068;12.116;2023-04-25T01:56:54;8.25;;;3.75;;
583;SDS011;27024;54.068;12.116;2023-04-25T01:59:23;8.30;;;3.70;;
583;SDS011;27024;54.068;12.116;2023-04-25T02:01:51;8.88;;;4.00;;
583;SDS011;27024;54.068;12.116;2023-04-25T02:04:18;9.48;;;3.55;;
583;SDS011;27024;54.068;12.116;2023-04-25T02:06:45;9.02;;;3.88;;
583;SDS011;27024;54.068;12.116;2023-04-25T02:09:12;9.80;;;3.90;;
583;SDS011;27024;54.068;12.116;2023-04-25T02:11:39;9.25;;;3.88;;
583;SDS011;27024;54.068;12.116;2023-04-25T02:14:05;7.45;;;3.60;;
583;SDS011;27024;54.068;12.116;2023-04-25T02:16:32;12.77;;;4.00;;
583;SDS011;27024;54.068;12.116;2023-04-25T02:18:59;11.63;;;3.97;;
583;SDS011;27024;54.068;12.116;2023-04-25T02:21:26;9.38;;;3.13;;
583;SDS011;27024;54.068;12.116;2023-04-25T02:23:53;9.27;;;3.35;;
583;SDS011;27024;54.068;12.116;2023-04-25T02:26:20;9.20;;;3.30;;
583;SDS011;27024;54.068;12.116;2023-04-25T02:28:47;7.90;;;3.00;;
583;SDS011;27024;54.068;12.116;2023-04-25T02:31:14;11.32;;;3.67;;
583;SDS011;27024;54.068;12.116;2023-04-25T02:33:41;9.40;;;3.40;;
583;SDS011;27024;54.068;12.116;2023-04-25T02:36:08;7.43;;;2.70;;
583;SDS011;27024;54.068;12.116;2023-04-25T02:38:35;7.85;;;2.80;;
583;SDS011;27024;54.068;12.116;2023-04-25T02:41:02;6.60;;;2.38;;
583;SDS011;27024;54.068;12.116;2023-04-25T02:43:29;9.38;;;2.83;;
583;SDS011;27024;54.068;12.116;2023-04-25T02:45:56;9.77;;;2.17;;
583;SDS011;27024;54.068;12.116;2023-04-25T02:48:22;7.85;;;2.13;;
583;SDS011;27024;54.068;12.116;2023-04-25T02:50:49;9.73;;;2.28;;
583;SDS011;27024;54.068;12.116;2023-04-25T02:53:17;9.20;;;2.10;;
583;SDS011;27024;54.068;12.116;2023-04-25T02:55:44;8.65;;;2.25;;
583;SDS011;27024;54.068;12.116;2023-04-25T02:58:11;11.55;;;2.17;;
583;SDS011;27024;54.068;12.116;2023-04-25T03:00:38;6.93;;;1.67;;
583;SDS011;27024;54.068;12.116;2023-04-25T03:03:04;11.52;;;2.67;;
583;SDS011;27024;54.068;12.116;2023-04-25T03:05:31;7.28;;;1.85;;
583;SDS011;27024;54.068;12.116;2023-04-25T03:07:58;8.68;;;1.95;;
583;SDS011;27024;54.068;12.116;2023-04-25T03:10:25;12.82;;;2.63;;
583;SDS011;27024;54.068;12.116;2023-04-25T03:12:52;9.98;;;2.33;;
583;SDS011;27024;54.068;12.116;2023-04-25T03:15:19;9.50;;;2.28;;
583;SDS011;27024;54.068;12.116;2023-04-25T03:17:46;10.13;;;2.10;;
583;SDS011;27024;54.068;12.116;2023-04-25T03:20:13;15.00;;;2.55;;
583;SDS011;27024;54.068;12.116;2023-04-25T03:22:39;14.50;;;1.98;;
583;SDS011;27024;54.068;12.116;2023-04-25T03:25:06;13.50;;;3.88;;
583;SDS011;27024;54.068;12.116;2023-04-25T03:27:34;15.05;;;2.80;;
583;SDS011;27024;54.068;12.116;2023-04-25T03:30:00;10.70;;;2.50;;
583;SDS011;27024;54.068;12.116;2023-04-25T03:32:27;11.20;;;2.65;;
583;SDS011;27024;54.068;12.116;2023-04-25T03:34:54;12.07;;;1.80;;
583;SDS011;27024;54.068;12.116;2023-04-25T03:37:21;13.40;;;2.95;;
583;SDS011;27024;54.068;12.116;2023-04-25T03:39:48;16.85;;;3.28;;
583;SDS011;27024;54.068;12.116;2023-04-25T03:42:15;9.65;;;2.60;;
583;SDS011;27024;54.068;12.116;2023-04-25T03:44:42;14.27;;;2.65;;
583;SDS011;27024;54.068;12.116;2023-04-25T03:47:08;12.48;;;2.50;;
583;SDS011;27024;54.068;12.116;2023-04-25T03:49:35;12.02;;;2.88;;
583;SDS011;27024;54.068;12.116;2023-04-25T03:52:03;18.83;;;3.08;;
583;SDS011;27024;54.068;12.116;2023-04-25T03:54:30;12.85;;;3.13;;
583;SDS011;27024;54.068;12.116;2023-04-25T03:56:57;10.50;;;2.55;;
583;SDS011;27024;54.068;12.116;2023-04-25T03:59:23;13.85;;;2.78;;
583;SDS011;27024;54.068;12.116;2023-04-25T04:01:51;14.05;;;2.42;;
583;SDS011;27024;54.068;12.116;2023-04-25T04:04:18;10.70;;;3.28;;
583;SDS011;27024;54.068;12.116;2023-04-25T04:06:46;12.40;;;2.10;;
583;SDS011;27024;54.068;12.116;2023-04-25T04:09:13;9.30;;;2.20;;
583;SDS011;27024;54.068;12.116;2023-04-25T04:11:39;8.98;;;2.22;;
583;SDS011;27024;54.068;12.116;2023-04-25T04:14:07;12.70;;;2.15;;
583;SDS011;27024;54.068;12.116;2023-04-25T04:16:34;11.90;;;2.55;;
583;SDS011;27024;54.068;12.116;2023-04-25T04:19:01;12.10;;;3.00;;
583;SDS011;27024;54.068;12.116;2023-04-25T04:21:28;9.55;;;3.15;;
583;SDS011;27024;54.068;12.116;2023-04-25T04:23:55;11.90;;;2.72;;
583;SDS011;27024;54.068;12.116;2023-04-25T04:26:24;9.90;;;2.55;;
583;SDS011;27024;54.068;12.116;2023-04-25T04:28:52;12.65;;;2.72;;
583;SDS011;27024;54.068;12.116;2023-04-25T04:31:21;12.70;;;2.25;;
583;SDS011;27024;54.068;12.116;2023-04-25T04:33:48;9.93;;;2.58;;
583;SDS011;27024;54.068;12.116;2023-04-25T04:36:15;9.88;;;2.78;;
583;SDS011;27024;54.068;12.116;2023-04-25T04:38:42;15.18;;;2.40;;
583;SDS011;27024;54.068;12.116;2023-04-25T04:41:09;13.25;;;2.47;;
583;SDS011;27024;54.068;12.116;2023-04-25T04:43:36;12.02;;;2.40;;
583;SDS011;27024;54.068;12.116;2023-04-25T04:46:03;13.88;;;2.05;;
583;SDS011;27024;54.068;12.116;2023-04-25T04:48:33;12.70;;;2.75;;
583;SDS011;27024;54.068;12.116;2023-04-25T04:51:00;10.13;;;3.53;;
583;SDS011;27024;54.068;12.116;2023-04-25T04:53:27;14.55;;;2.25;;
583;SDS011;27024;54.068;12.116;2023-04-25T04:55:54;18.95;;;3.40;;
583;SDS011;27024;54.068;12.116;2023-04-25T04:58:21;13.68;;;3.10;;
583;SDS011;27024;54.068;12.116;2023-04-25T05:00:48;12.93;;;3.03;;
583;SDS011;27024;54.068;12.116;2023-04-25T05:03:15;16.45;;;2.90;;
583;SDS011;27024;54.068;12.116;2023-04-25T05:05:42;11.98;;;2.30;;
583;SDS011;27024;54.068;12.116;2023-04-25T05:08:09;11.82;;;2.05;;
583;SDS011;27024;54.068;12.116;2023-04-25T05:10:36;13.73;;;2.88;;
583;SDS011;27024;54.068;12.116;2023-04-25T05:13:03;11.00;;;2.03;;
583;SDS011;27024;54.068;12.116;2023-04-25T05:15:29;16.33;;;2.50;;
583;SDS011;27024;54.068;12.116;2023-04-25T05:17:56;11.52;;;2.30;;
583;SDS011;27024;54.068;12.116;2023-04-25T05:20:23;12.38;;;2.40;;
583;SDS011;27024;54.068;12.116;2023-04-25T05:22:50;13.75;;;2.88;;
583;SDS011;27024;54.068;12.116;2023-04-25T05:25:17;11.15;;;2.35;;
583;SDS011;27024;54.068;12.116;2023-04-25T05:27:44;13.18;;;2.15;;
583;SDS011;27024;54.068;12.116;2023-04-25T05:30:10;17.73;;;2.78;;
583;SDS011;27024;54.068;12.116;2023-04-25T05:32:37;14.45;;;2.33;;
583;SDS011;27024;54.068;12.116;2023-04-25T05:35:04;17.35;;;2.47;;
583;SDS011;27024;54.068;12.116;2023-04-25T05:37:33;11.20;;;2.75;;
583;SDS011;27024;54.068;12.116;2023-04-25T05:39:59;16.17;;;3.22;;
583;SDS011;27024;54.068;12.116;2023-04-25T05:42:26;14.90;;;2.38;;
583;SDS011;27024;54.068;12.116;2023-04-25T05:44:53;12.02;;;1.98;;
583;SDS011;27024;54.068;12.116;2023-04-25T05:47:20;13.32;;;2.03;;
583;SDS011;27024;54.068;12.116;2023-04-25T05:49:47;9.40;;;2.90;;
583;SDS011;27024;54.068;12.116;2023-04-25T05:52:13;10.82;;;2.47;;
583;SDS011;27024;54.068;12.116;2023-04-25T05:54:41;15.82;;;2.38;;
583;SDS011;27024;54.068;12.116;2023-04-25T05:57:08;14.45;;;2.38;;
583;SDS011;27024;54.068;12.116;2023-04-25T05:59:35;16.90;;;2.65;;
583;SDS011;27024;54.068;12.116;2023-04-25T06:02:02;10.40;;;2.72;;
583;SDS011;27024;54.068;12.116;2023-04-25T06:04:29;14.25;;;2.75;;
583;SDS011;27024;54.068;12.116;2023-04-25T06:06:56;10.82;;;2.70;;
583;SDS011;27024;54.068;12.116;2023-04-25T06:09:23;10.30;;;2.17;;
583;SDS011;27024;54.068;12.116;2023-04-25T06:11:49;10.60;;;2.25;;
583;SDS011;27024;54.068;12.116;2023-04-25T06:14:16;12.25;;;2.58;;
583;SDS011;27024;54.068;12.116;2023-04-25T06:16:43;17.02;;;3.80;;
583;SDS011;27024;54.068;12.116;2023-04-25T06:19:10;9.75;;;1.42;;
583;SDS011;27024;54.068;12.116;2023-04-25T06:21:37;10.48;;;2.55;;
583;SDS011;27024;54.068;12.116;2023-04-25T06:24:04;13.82;;;2.42;;
583;SDS011;27024;54.068;12.116;2023-04-25T06:26:31;10.07;;;2.10;;
583;SDS011;27024;54.068;12.116;2023-04-25T06:28:58;14.13;;;2.33;;
583;SDS011;27024;54.068;12.116;2023-04-25T06:31:24;15.80;;;3.40;;
583;SDS011;27024;54.068;12.116;2023-04-25T06:33:51;13.85;;;1.80;;
583;SDS011;27024;54.068;12.116;2023-04-25T06:36:21;14.02;;;2.78;;
583;SDS011;27024;54.068;12.116;2023-04-25T06:38:52;11.40;;;2.10;;
583;SDS011;27024;54.068;12.116;2023-04-25T06:41:19;13.80;;;2.47;;
583;SDS011;27024;54.068;12.116;2023-04-25T06:43:46;11.95;;;3.10;;
583;SDS011;27024;54.068;12.116;2023-04-25T06:46:13;12.35;;;2.20;;
583;SDS011;27024;54.068;12.116;2023-04-25T06:48:39;15.82;;;2.80;;
583;SDS011;27024;54.068;12.116;2023-04-25T06:51:06;16.50;;;3.13;;
583;SDS011;27024;54.068;12.116;2023-04-25T06:53:33;15.85;;;2.67;;
583;SDS011;27024;54.068;12.116;2023-04-25T06:56:00;14.25;;;2.63;;
583;SDS011;27024;54.068;12.116;2023-04-25T06:58:27;13.77;;;2.13;;
583;SDS011;27024;54.068;12.116;2023-04-25T07:00:53;19.02;;;2.83;;
583;SDS011;27024;54.068;12.116;2023-04-25T07:03:20;11.75;;;2.72;;
583;SDS011;27024;54.068;12.116;2023-04-25T07:05:48;12.80;;;2.25;;
583;SDS011;27024;54.068;12.116;2023-04-25T07:08:15;9.18;;;1.90;;
583;SDS011;27024;54.068;12.116;2023-04-25T07:10:42;12.52;;;2.95;;
583;SDS011;27024;54.068;12.116;2023-04-25T07:13:09;13.35;;;2.28;;
583;SDS011;27024;54.068;12.116;2023-04-25T07:15:35;11.85;;;2.17;;
583;SDS011;27024;54.068;12.116;2023-04-25T07:18:02;11.18;;;2.22;;
583;SDS011;27024;54.068;12.116;2023-04-25T07:20:30;11.10;;;2.00;;
583;SDS011;27024;54.068;12.116;2023-04-25T07:22:57;12.27;;;2.20;;
583;SDS011;27024;54.068;12.116;2023-04-25T07:25:24;7.93;;;1.73;;
583;SDS011;27024;54.068;12.116;2023-04-25T07:27:51;10.98;;;2.00;;
583;SDS011;27024;54.068;12.116;2023-04-25T07:30:18;11.18;;;1.83;;
583;SDS011;27024;54.068;12.116;2023-04-25T07:32:44;9.70;;;2.22;;
583;SDS011;27024;54.068;12.116;2023-04-25T07:35:11;11.88;;;1.95;;
583;SDS011;27024;54.068;12.116;2023-04-25T07:37:38;12.23;;;1.95;;
583;SDS011;27024;54.068;12.116;2023-04-25T07:40:05;13.80;;;2.40;;
583;SDS011;27024;54.068;12.116;2023-04-25T07:42:34;8.45;;;2.03;;
583;SDS011;27024;54.068;12.116;2023-04-25T07:45:01;15.73;;;2.33;;
583;SDS011;27024;54.068;12.116;2023-04-25T07:47:28;16.08;;;2.28;;
583;SDS011;27024;54.068;12.116;2023-04-25T07:49:54;16.10;;;2.53;;
583;SDS011;27024;54.068;12.116;2023-04-25T07:52:22;14.23;;;2.65;;
583;SDS011;27024;54.068;12.116;2023-04-25T07:54:49;10.85;;;1.83;;
583;SDS011;27024;54.068;12.116;2023-04-25T07:57:16;17.55;;;2.70;;
583;SDS011;27024;54.068;12.116;2023-04-25T07:59:43;15.52;;;2.20;;
583;SDS011;27024;54.068;12.116;2023-04-25T08:02:10;12.45;;;1.80;;
583;SDS011;27024;54.068;12.116;2023-04-25T08:04:37;12.65;;;2.33;;
583;SDS011;27024;54.068;12.116;2023-04-25T08:07:04;9.68;;;1.65;;
583;SDS011;27024;54.068;12.116;2023-04-25T08:09:31;10.02;;;1.80;;
583;SDS011;27024;54.068;12.116;2023-04-25T08:12:00;15.27;;;1.85;;
583;SDS011;27024;54.068;12.116;2023-04-25T08:14:28;16.02;;;1.75;;
583;SDS011;27024;54.068;12.116;2023-04-25T08:17:02;12.80;;;2.83;;
583;SDS011;27024;54.068;12.116;2023-04-25T08:19:30;12.43;;;1.65;;
583;SDS011;27024;54.068;12.116;2023-04-25T08:21:57;12.40;;;2.22;;
583;SDS011;27024;54.068;12.116;2023-04-25T08:24:24;11.57;;;1.80;;
583;SDS011;27024;54.068;12.116;2023-04-25T08:26:51;12.27;;;1.80;;
583;SDS011;27024;54.068;12.116;2023-04-25T08:29:18;12.20;;;1.75;;
583;SDS011;27024;54.068;12.116;2023-04-25T08:31:45;8.50;;;1.85;;
583;SDS011;27024;54.068;12.116;2023-04-25T08:34:12;11.50;;;2.45;;
583;SDS011;27024;54.068;12.116;2023-04-25T08:36:38;9.55;;;2.25;;
583;SDS011;27024;54.068;12.116;2023-04-25T08:39:05;10.48;;;1.88;;
583;SDS011;27024;54.068;12.116;2023-04-25T08:41:33;10.02;;;1.75;;
583;SDS011;27024;54.068;12.116;2023-04-25T08:44:00;10.80;;;2.05;;
583;SDS011;27024;54.068;12.116;2023-04-25T08:46:29;10.77;;;1.65;;
583;SDS011;27024;54.068;12.116;2023-04-25T08:49:00;9.98;;;1.95;;
583;SDS011;27024;54.068;12.116;2023-04-25T08:51:30;13.77;;;2.03;;
583;SDS011;27024;54.068;12.116;2023-04-25T08:54:08;13.32;;;2.10;;
583;SDS011;27024;54.068;12.116;2023-04-25T08:56:57;9.90;;;1.75;;
583;SDS011;27024;54.068;12.116;2023-04-25T08:59:28;11.15;;;1.80;;
583;SDS011;27024;54.068;12.116;2023-04-25T09:01:55;11.55;;;2.03;;
583;SDS011;27024;54.068;12.116;2023-04-25T09:04:23;9.95;;;1.63;;
583;SDS011;27024;54.068;12.116;2023-04-25T09:06:50;6.38;;;1.60;;
583;SDS011;27024;54.068;12.116;2023-04-25T09:09:17;11.40;;;2.17;;
583;SDS011;27024;54.068;12.116;2023-04-25T09:11:44;11.43;;;2.03;;
583;SDS011;27024;54.068;12.116;2023-04-25T09:14:15;12.20;;;2.17;;
583;SDS011;27024;54.068;12.116;2023-04-25T09:19:22;13.75;;;2.15;;
583;SDS011;27024;54.068;12.116;2023-04-25T09:22:04;8.25;;;1.88;;
583;SDS011;27024;54.068;12.116;2023-04-25T09:27:05;10.13;;;1.98;;
583;SDS011;27024;54.068;12.116;2023-04-25T09:29:39;10.52;;;1.67;;
583;SDS011;27024;54.068;12.116;2023-04-25T09:32:20;9.98;;;1.95;;
583;SDS011;27024;54.068;12.116;2023-04-25T09:34:52;10.98;;;1.83;;
583;SDS011;27024;54.068;12.116;2023-04-25T09:37:24;7.93;;;1.40;;
583;SDS011;27024;54.068;12.116;2023-04-25T09:39:53;8.13;;;1.52;;
583;SDS011;27024;54.068;12.116;2023-04-25T09:42:22;8.80;;;1.85;;
583;SDS011;27024;54.068;12.116;2023-04-25T09:44:53;10.80;;;2.70;;
583;SDS011;27024;54.068;12.116;2023-04-25T09:47:23;14.25;;;2.75;;
583;SDS011;27024;54.068;12.116;2023-04-25T09:49:52;10.32;;;2.15;;
583;SDS011;27024;54.068;12.116;2023-04-25T09:52:20;7.80;;;1.35;;
583;SDS011;27024;54.068;12.116;2023-04-25T09:54:51;7.28;;;1.90;;
583;SDS011;27024;54.068;12.116;2023-04-25T09:57:20;9.13;;;1.80;;
583;SDS011;27024;54.068;12.116;2023-04-25T09:59:54;11.88;;;1.40;;
583;SDS011;27024;54.068;12.116;2023-04-25T10:02:25;7.82;;;1.83;;
583;SDS011;27024;54.068;12.116;2023-04-25T10:04:54;10.07;;;2.03;;
583;SDS011;27024;54.068;12.116;2023-04-25T10:07:23;10.80;;;2.13;;
583;SDS011;27024;54.068;12.116;2023-04-25T10:09:54;8.45;;;1.83;;
583;SDS011;27024;54.068;12.116;2023-04-25T10:12:26;11.63;;;1.48;;
583;SDS011;27024;54.068;12.116;2023-04-25T10:14:53;10.30;;;2.05;;
583;SDS011;27024;54.068;12.116;2023-04-25T10:17:21;6.97;;;1.20;;
583;SDS011;27024;54.068;12.116;2023-04-25T10:19:48;11.70;;;2.28;;
583;SDS011;27024;54.068;12.116;2023-04-25T10:22:20;13.88;;;1.50;;
583;SDS011;27024;54.068;12.116;2023-04-25T10:24:55;8.77;;;1.98;;
583;SDS011;27024;54.068;12.116;2023-04-25T10:27:23;10.13;;;1.88;;
583;SDS011;27024;54.068;12.116;2023-04-25T10:30:00;7.63;;;1.60;;
583;SDS011;27024;54.068;12.116;2023-04-25T10:32:31;7.38;;;1.20;;
583;SDS011;27024;54.068;12.116;2023-04-25T10:35:17;12.60;;;1.85;;
583;SDS011;27024;54.068;12.116;2023-04-25T10:38:03;7.90;;;1.65;;
583;SDS011;27024;54.068;12.116;2023-04-25T10:40:36;8.35;;;1.20;;
583;SDS011;27024;54.068;12.116;2023-04-25T10:43:50;8.85;;;1.45;;
583;SDS011;27024;54.068;12.116;2023-04-25T10:46:21;7.43;;;1.40;;
583;SDS011;27024;54.068;12.116;2023-04-25T10:48:50;7.03;;;1.23;;
583;SDS011;27024;54.068;12.116;2023-04-25T10:56:22;9.40;;;1.40;;
583;SDS011;27024;54.068;12.116;2023-04-25T10:58:51;9.05;;;1.15;;
583;SDS011;27024;54.068;12.116;2023-04-25T11:01:29;8.63;;;1.38;;
583;SDS011;27024;54.068;12.116;2023-04-25T11:04:20;9.45;;;1.85;;
583;SDS011;27024;54.068;12.116;2023-04-25T11:09:40;11.35;;;1.85;;
583;SDS011;27024;54.068;12.116;2023-04-25T11:12:07;6.75;;;1.35;;
583;SDS011;27024;54.068;12.116;2023-04-25T11:14:35;10.15;;;2.10;;
583;SDS011;27024;54.068;12.116;2023-04-25T11:17:02;8.10;;;1.52;;
583;SDS011;27024;54.068;12.116;2023-04-25T11:19:29;11.48;;;2.60;;
583;SDS011;27024;54.068;12.116;2023-04-25T11:21:57;7.78;;;1.73;;
583;SDS011;27024;54.068;12.116;2023-04-25T11:24:31;9.85;;;1.52;;
583;SDS011;27024;54.068;12.116;2023-04-25T11:27:01;10.95;;;1.48;;
583;SDS011;27024;54.068;12.116;2023-04-25T11:29:29;7.18;;;1.13;;
583;SDS011;27024;54.068;12.116;2023-04-25T11:31:57;9.73;;;1.35;;
583;SDS011;27024;54.068;12.116;2023-04-25T11:34:24;11.68;;;1.58;;
583;SDS011;27024;54.068;12.116;2023-04-25T11:36:52;11.27;;;1.63;;
583;SDS011;27024;54.068;12.116;2023-04-25T11:39:20;8.48;;;1.20;;
583;SDS011;27024;54.068;12.116;2023-04-25T11:41:47;6.72;;;1.25;;
583;SDS011;27024;54.068;12.116;2023-04-25T11:44:17;11.88;;;1.92;;
583;SDS011;27024;54.068;12.116;2023-04-25T11:46:44;10.45;;;1.35;;
583;SDS011;27024;54.068;12.116;2023-04-25T11:49:12;7.75;;;1.35;;
583;SDS011;27024;54.068;12.116;2023-04-25T11:51:40;4.55;;;1.15;;
583;SDS011;27024;54.068;12.116;2023-04-25T11:54:07;11.23;;;1.40;;
583;SDS011;27024;54.068;12.116;2023-04-25T11:56:34;8.20;;;1.52;;
583;SDS011;27024;54.068;12.116;2023-04-25T11:59:05;6.88;;;1.20;;
583;SDS011;27024;54.068;12.116;2023-04-25T12:01:34;5.95;;;1.98;;
583;SDS011;27024;54.068;12.116;2023-04-25T12:09:11;6.93;;;1.25;;
583;SDS011;27024;54.068;12.116;2023-04-25T12:11:43;4.85;;;1.13;;
583;SDS011;27024;54.068;12.116;2023-04-25T12:14:27;10.77;;;1.30;;
583;SDS011;27024;54.068;12.116;2023-04-25T12:16:56;6.88;;;1.20;;
583;SDS011;27024;54.068;12.116;2023-04-25T12:19:34;9.63;;;1.88;;
583;SDS011;27024;54.068;12.116;2023-04-25T12:22:02;6.93;;;1.60;;
583;SDS011;27024;54.068;12.116;2023-04-25T12:24:32;7.45;;;1.38;;
583;SDS011;27024;54.068;12.116;2023-04-25T12:27:05;6.55;;;1.17;;
583;SDS011;27024;54.068;12.116;2023-04-25T12:29:35;8.48;;;1.42;;
583;SDS011;27024;54.068;12.116;2023-04-25T12:32:15;7.43;;;1.02;;
583;SDS011;27024;54.068;12.116;2023-04-25T12:34:42;11.82;;;2.03;;
583;SDS011;27024;54.068;12.116;2023-04-25T12:37:09;8.90;;;1.13;;
583;SDS011;27024;54.068;12.116;2023-04-25T12:39:36;8.27;;;1.65;;
583;SDS011;27024;54.068;12.116;2023-04-25T12:42:03;5.25;;;1.58;;
583;SDS011;27024;54.068;12.116;2023-04-25T12:44:33;8.32;;;2.22;;
583;SDS011;27024;54.068;12.116;2023-04-25T12:47:01;5.20;;;1.58;;
583;SDS011;27024;54.068;12.116;2023-04-25T12:49:29;8.63;;;1.10;;
583;SDS011;27024;54.068;12.116;2023-04-25T12:51:56;8.93;;;1.20;;
583;SDS011;27024;54.068;12.116;2023-04-25T12:54:24;4.93;;;1.05;;
583;SDS011;27024;54.068;12.116;2023-04-25T12:56:51;6.63;;;1.27;;
583;SDS011;27024;54.068;12.116;2023-04-25T12:59:19;6.20;;;1.35;;
583;SDS011;27024;54.068;12.116;2023-04-25T13:01:47;7.72;;;1.20;;
583;SDS011;27024;54.068;12.116;2023-04-25T13:04:14;8.73;;;1.33;;
583;SDS011;27024;54.068;12.116;2023-04-25T13:06:41;7.88;;;1.10;;
583;SDS011;27024;54.068;12.116;2023-04-25T13:09:08;9.32;;;1.35;;
583;SDS011;27024;54.068;12.116;2023-04-25T13:11:36;6.97;;;1.23;;
583;SDS011;27024;54.068;12.116;2023-04-25T13:14:02;5.60;;;1.98;;
583;SDS011;27024;54.068;12.116;2023-04-25T13:16:29;6.10;;;1.35;;
583;SDS011;27024;54.068;12.116;2023-04-25T13:18:57;5.32;;;1.20;;
583;SDS011;27024;54.068;12.116;2023-04-25T13:21:24;6.57;;;1.10;;
583;SDS011;27024;54.068;12.116;2023-04-25T13:23:51;5.82;;;1.33;;
583;SDS011;27024;54.068;12.116;2023-04-25T13:26:19;5.03;;;0.77;;
583;SDS011;27024;54.068;12.116;2023-04-25T13:28:46;5.32;;;0.90;;
583;SDS011;27024;54.068;12.116;2023-04-25T13:31:13;6.03;;;0.90;;
583;SDS011;27024;54.068;12.116;2023-04-25T13:33:40;6.65;;;0.80;;
583;SDS011;27024;54.068;12.116;2023-04-25T13:36:06;6.40;;;0.90;;
583;SDS011;27024;54.068;12.116;2023-04-25T13:38:33;9.43;;;0.90;;
583;SDS011;27024;54.068;12.116;2023-04-25T13:41:00;4.85;;;1.00;;
583;SDS011;27024;54.068;12.116;2023-04-25T13:43:27;6.15;;;1.00;;
583;SDS011;27024;54.068;12.116;2023-04-25T13:45:54;6.90;;;1.10;;
583;SDS011;27024;54.068;12.116;2023-04-25T13:48:24;8.32;;;1.20;;
583;SDS011;27024;54.068;12.116;2023-04-25T13:50:50;6.97;;;1.00;;
583;SDS011;27024;54.068;12.116;2023-04-25T13:53:17;6.05;;;1.20;;
583;SDS011;27024;54.068;12.116;2023-04-25T13:55:44;5.10;;;0.90;;
583;SDS011;27024;54.068;12.116;2023-04-25T13:58:11;7.07;;;1.10;;
583;SDS011;27024;54.068;12.116;2023-04-25T14:00:38;9.35;;;1.27;;
583;SDS011;27024;54.068;12.116;2023-04-25T14:03:06;8.05;;;1.60;;
583;SDS011;27024;54.068;12.116;2023-04-25T14:05:36;9.00;;;1.27;;
583;SDS011;27024;54.068;12.116;2023-04-25T14:08:08;9.23;;;1.15;;
583;SDS011;27024;54.068;12.116;2023-04-25T14:10:36;9.20;;;1.55;;
583;SDS011;27024;54.068;12.116;2023-04-25T14:13:04;7.65;;;1.10;;
583;SDS011;27024;54.068;12.116;2023-04-25T14:15:33;8.48;;;1.15;;
583;SDS011;27024;54.068;12.116;2023-04-25T14:18:01;8.60;;;0.80;;
583;SDS011;27024;54.068;12.116;2023-04-25T14:20:28;7.65;;;1.20;;
583;SDS011;27024;54.068;12.116;2023-04-25T14:22:55;7.70;;;1.58;;
583;SDS011;27024;54.068;12.116;2023-04-25T14:25:23;10.07;;;1.67;;
583;SDS011;27024;54.068;12.116;2023-04-25T14:27:51;7.13;;;1.30;;
583;SDS011;27024;54.068;12.116;2023-04-25T14:30:18;4.90;;;0.90;;
583;SDS011;27024;54.068;12.116;2023-04-25T14:32:46;4.72;;;1.05;;
583;SDS011;27024;54.068;12.116;2023-04-25T14:35:14;9.90;;;1.42;;
583;SDS011;27024;54.068;12.116;2023-04-25T14:37:42;8.85;;;1.58;;
583;SDS011;27024;54.068;12.116;2023-04-25T14:40:09;6.60;;;1.48;;
583;SDS011;27024;54.068;12.116;2023-04-25T14:42:37;8.57;;;1.25;;
583;SDS011;27024;54.068;12.116;2023-04-25T14:45:04;10.77;;;1.70;;
583;SDS011;27024;54.068;12.116;2023-04-25T14:47:36;11.55;;;1.15;;
583;SDS011;27024;54.068;12.116;2023-04-25T14:50:04;8.57;;;1.75;;
583;SDS011;27024;54.068;12.116;2023-04-25T14:52:32;10.38;;;1.80;;
583;SDS011;27024;54.068;12.116;2023-04-25T14:54:59;11.40;;;1.63;;
583;SDS011;27024;54.068;12.116;2023-04-25T14:57:32;8.23;;;1.45;;
583;SDS011;27024;54.068;12.116;2023-04-25T14:59:59;10.85;;;1.40;;
583;SDS011;27024;54.068;12.116;2023-04-25T15:02:27;11.32;;;1.50;;
583;SDS011;27024;54.068;12.116;2023-04-25T15:04:54;8.55;;;1.73;;
583;SDS011;27024;54.068;12.116;2023-04-25T15:07:24;12.15;;;1.27;;
583;SDS011;27024;54.068;12.116;2023-04-25T15:09:52;9.23;;;1.42;;
583;SDS011;27024;54.068;12.116;2023-04-25T15:12:19;7.65;;;1.02;;
583;SDS011;27024;54.068;12.116;2023-04-25T15:14:46;3.30;;;0.73;;
583;SDS011;27024;54.068;12.116;2023-04-25T15:17:13;6.90;;;1.08;;
583;SDS011;27024;54.068;12.116;2023-04-25T15:19:41;4.82;;;0.95;;